Latest Weather Observations for Maroochydore

IDQ60801

Issued at 5:32 pm EST Thursday 8 December 2016 (issued every 30 minutes, with the page automatically refreshed every 10 minutes)

About weather observations | Map of weather stations | Latest weather observations for QLD | Other Formats
Station Details ID: 040861 Name: SUNSHINE COAST AIRPORT Lat: -26.60 Lon: 153.09 Height: 3.3 m
Data from the previous 72 hours. | See also: Recent months at Maroochydore
Date/Time
EST
Temp
°C
App
Temp
°C
Dew
Point
°C
Rel
Hum
%
Delta-T
°C
Wind Press
QNH
hPa
Press
MSL
hPa
Rain since
9am
mm
Dir  Spd
km/h
Gust
km/h
Spd
kts
Gust
kts
08/05:00pm 25.2 24.1 21.7 81 2.3 N 30 43 16 23 1007.3 - 0.0
08/04:30pm 26.1 24.3 21.5 76 3.1 N 33 44 18 24 1006.8 - 0.0
08/04:00pm 26.0 24.1 21.0 74 3.3 N 32 44 17 24 1007.1 - 0.0
08/03:30pm 27.1 26.3 22.3 75 3.2 N 30 41 16 22 1007.4 - 0.0
08/03:00pm 26.6 25.7 21.4 73 3.5 NNE 28 41 15 22 1007.8 1007.8 0.0
08/02:30pm 27.8 26.8 21.3 67 4.3 N 28 37 15 20 1008.6 - 0.0
08/02:00pm 28.7 28.5 22.0 67 4.5 NNE 26 35 14 19 1009.2 - 0.0
08/01:30pm 28.0 27.7 21.8 69 4.2 NNE 26 33 14 18 1009.8 - 0.0
08/01:00pm 27.5 27.2 21.8 71 3.8 NNE 26 35 14 19 1010.2 - 0.0
08/12:30pm 27.6 27.5 21.4 69 4.1 NNE 24 30 13 16 1010.7 - 0.0
08/12:00pm 28.4 28.3 22.2 69 4.2 NNE 26 32 14 17 1011.1 1011.1 0.0
08/11:30am 27.2 27.2 21.7 72 3.7 NNE 24 30 13 16 1011.5 - 0.0
08/11:00am 27.6 28.9 23.4 78 2.9 NNE 22 28 12 15 1011.5 - 0.0
08/10:30am 26.7 28.5 23.2 81 2.4 NNE 19 24 10 13 1011.8 - 0.0
08/10:00am 25.6 27.1 22.7 84 2.0 NNE 19 22 10 12 1012.0 - 0.0
08/09:30am 25.9 27.6 22.4 81 2.4 NNE 17 20 9 11 1012.3 - 0.0
08/09:00am 26.2 27.6 21.8 77 2.9 NNE 17 20 9 11 1012.4 1012.4 0.2
08/08:30am 26.1 28.7 22.6 81 2.4 NE 13 17 7 9 1012.4 - 0.2
08/08:27am 25.7 28.1 22.2 81 2.3 NE 13 17 7 9 1012.4 - 0.2
08/08:00am 26.1 28.3 22.6 81 2.4 NE 15 19 8 10 1012.1 - 0.2
08/07:30am 26.0 29.5 23.5 86 1.7 NE 11 13 6 7 1012.1 - 0.2
08/07:19am 25.0 28.6 23.1 89 1.3 NNE 9 13 5 7 1012.1 - 0.2
08/07:17am 24.7 28.2 22.8 89 1.3 NNE 9 13 5 7 1012.1 - 0.2
08/07:00am 24.6 28.3 23.2 92 0.9 NNE 9 13 5 7 1012.2 - 0.2
08/06:30am 23.9 27.4 22.9 94 0.7 NNE 9 11 5 6 1012.0 - 0.2
08/06:00am 23.7 27.8 22.9 95 0.5 NNE 6 7 3 4 1012.0 1012.0 0.2
08/05:30am 23.3 27.0 22.6 96 0.5 N 7 9 4 5 1012.1 - 0.2
08/05:00am 23.2 26.5 22.5 96 0.5 W 9 11 5 6 1011.8 - 0.2
08/04:57am 23.2 26.5 22.5 96 0.5 W 9 11 5 6 1011.8 - 0.2
08/04:38am 23.1 26.9 22.4 96 0.5 WNW 6 7 3 4 1011.7 - 0.2
08/04:30am 23.1 26.9 22.4 96 0.5 W 6 7 3 4 1011.7 - 0.2
08/04:00am 23.0 26.6 22.3 96 0.5 NW 7 7 4 4 1011.7 - 0.2
08/03:30am 23.0 26.9 22.5 97 0.3 WNW 6 7 3 4 1011.7 - 0.2
08/03:00am 22.9 26.6 22.2 96 0.5 NW 6 7 3 4 1011.7 1011.7 0.2
08/02:30am 22.9 26.4 22.2 96 0.5 WNW 7 9 4 5 1011.8 - 0.2
08/02:00am 22.6 25.9 21.9 96 0.5 NW 7 7 4 4 1011.8 - 0.2
08/01:30am 22.7 26.2 21.9 95 0.5 WNW 6 7 3 4 1011.6 - 0.2
08/01:26am 22.7 26.2 21.9 95 0.5 NW 6 7 3 4 1011.7 - 0.2
08/01:22am 22.7 26.6 21.9 95 0.5 NW 4 7 2 4 1011.7 - 0.2
08/01:14am 22.6 26.8 21.8 95 0.5 NW 2 6 1 3 1011.8 - 0.2
08/01:08am 22.6 26.8 21.8 95 0.5 NW 2 6 1 3 1011.8 - 0.2
08/01:00am 22.8 26.4 22.0 95 0.5 NW 6 6 3 3 1012.0 - 0.2
08/12:30am 23.0 26.7 22.2 95 0.5 W 6 9 3 5 1012.6 - 0.2
08/12:00am 23.2 26.8 22.4 95 0.5 SW 7 9 4 5 1013.1 1013.1 0.2
 
Date/Time
EST
Temp
°C
App
Temp
°C
Dew
Point
°C
Rel
Hum
%
Delta-T
°C
Wind Press
QNH
hPa
Press
MSL
hPa
Rain since
9am
mm
Dir  Spd
km/h
Gust
km/h
Spd
kts
Gust
kts
07/11:30pm 23.1 26.7 22.3 95 0.5 SW 7 11 4 6 1013.5 - 0.2
07/11:06pm 22.8 26.2 21.6 93 0.8 W 6 9 3 5 1013.8 - 0.2
07/11:00pm 22.9 26.4 21.9 94 0.7 WSW 6 7 3 4 1013.8 - 0.2
07/10:30pm 23.1 26.6 22.1 94 0.7 WSW 7 9 4 5 1014.2 - 0.2
07/10:00pm 23.1 25.8 22.1 94 0.7 S 11 13 6 7 1013.8 - 0.2
07/09:30pm 23.2 26.2 22.0 93 0.8 S 9 13 5 7 1013.3 - 0.2
07/09:00pm 23.0 25.9 21.8 93 0.8 NNE 9 13 5 7 1012.4 1012.4 0.2
07/08:35pm 23.1 24.9 21.9 93 0.8 NNE 15 19 8 10 1012.4 - 0.2
07/08:30pm 23.2 25.5 22.0 93 0.8 NNE 13 17 7 9 1012.4 - 0.2
07/08:17pm 23.3 25.8 21.7 91 1.1 NE 11 13 6 7 1012.6 - 0.2
07/08:00pm 23.6 26.1 21.7 89 1.3 S 11 15 6 8 1012.9 - 0.0
07/07:30pm 23.3 25.9 21.2 88 1.4 N 9 15 5 8 1012.8 - 0.0
07/07:00pm 24.1 27.0 21.0 83 2.0 ESE 7 9 4 5 1012.6 - 0.0
07/06:30pm 24.3 27.7 21.0 82 2.2 WNW 4 7 2 4 1012.5 - 0.0
07/06:00pm 24.3 27.0 20.6 80 2.4 N 7 13 4 7 1011.6 1011.6 0.0
07/05:30pm 24.4 24.9 20.9 81 2.3 N 19 28 10 15 1011.1 - 0.0
07/05:00pm 24.3 24.7 21.0 82 2.2 N 20 28 11 15 1010.6 - 0.0
07/04:30pm 24.2 24.2 20.9 82 2.2 N 22 30 12 16 1010.1 - 0.0
07/04:00pm 24.6 23.3 20.7 79 2.6 N 28 39 15 21 1009.7 - 0.0
07/03:30pm 25.3 23.4 21.0 77 2.8 N 32 43 17 23 1009.6 - 0.0
07/03:00pm 25.7 23.8 20.9 75 3.2 N 32 44 17 24 1009.9 1009.9 0.0
07/02:30pm 26.7 24.9 21.2 72 3.6 N 32 43 17 23 1010.2 - 0.0
07/02:00pm 25.7 23.4 20.5 73 3.4 N 33 44 18 24 1010.4 - 0.0
07/01:30pm 27.2 25.2 20.8 68 4.2 N 32 46 17 25 1010.4 - 0.0
07/01:00pm 27.3 25.0 21.3 69 4.0 NNE 35 43 19 23 1010.8 - 0.0
07/12:30pm 26.9 26.3 21.9 74 3.3 NNE 28 41 15 22 1011.1 - 0.0
07/12:00pm 26.7 25.6 21.7 74 3.3 NNE 30 37 16 20 1011.3 1011.3 0.0
07/11:30am 25.9 24.7 20.9 74 3.3 NNE 28 35 15 19 1011.8 - 0.0
07/11:00am 27.0 27.5 22.0 74 3.4 NNE 22 28 12 15 1012.4 - 0.0
07/10:30am 27.4 27.8 21.7 71 3.8 NNE 22 28 12 15 1012.8 - 0.0
07/10:00am 26.4 28.9 23.1 82 2.2 N 15 20 8 11 1013.2 - 0.0
07/09:30am 25.1 27.6 22.4 85 1.8 NNE 13 19 7 10 1013.3 - 0.0
07/09:00am 23.8 25.2 21.9 89 1.3 NNE 17 24 9 13 1013.5 1013.5 0.2
07/08:30am 24.9 27.9 22.0 84 1.9 NNE 9 13 5 7 1013.6 - 0.2
07/08:00am 24.6 26.6 21.5 83 2.1 N 13 15 7 8 1013.7 - 0.2
07/07:30am 25.4 28.0 21.9 81 2.3 N 11 15 6 8 1014.4 - 0.2
07/07:00am 23.4 26.8 21.7 90 1.1 NW 6 9 3 5 1014.6 - 0.2
07/06:30am 22.8 25.1 21.4 92 0.9 NNW 11 19 6 10 1014.2 - 0.2
07/06:00am 22.5 24.9 21.5 94 0.7 N 11 13 6 7 1013.8 1013.8 0.2
07/05:30am 22.1 23.8 20.9 93 0.8 N 13 17 7 9 1013.3 - 0.2
07/05:00am 22.0 23.9 20.6 92 0.9 NNE 11 13 6 7 1013.6 - 0.2
07/04:30am 22.1 23.8 20.2 89 1.2 NNE 11 15 6 8 1013.5 - 0.2
07/04:00am 23.2 26.6 20.2 83 1.9 SW 2 6 1 3 1013.5 - 0.0
07/03:30am 23.2 25.7 20.2 83 1.9 W 7 11 4 6 1012.8 - 0.0
07/03:00am 23.1 25.6 20.2 84 1.9 NW 7 15 4 8 1012.0 1012.0 0.0
07/02:30am 22.5 24.5 19.9 85 1.7 NNW 9 13 5 7 1011.5 - 0.0
07/02:00am 22.6 24.2 19.9 85 1.7 NNW 11 17 6 9 1011.1 - 0.0
07/01:30am 23.0 24.2 20.0 83 1.9 NNW 13 17 7 9 1011.3 - 0.0
07/01:00am 22.8 24.0 20.0 84 1.8 NNW 13 17 7 9 1011.5 - 0.0
07/12:30am 23.1 23.6 20.1 83 1.9 NNW 17 20 9 11 1011.7 - 0.0
07/12:00am 23.2 23.6 19.8 81 2.2 N 17 24 9 13 1012.0 1012.0 0.0
 
Date/Time
EST
Temp
°C
App
Temp
°C
Dew
Point
°C
Rel
Hum
%
Delta-T
°C
Wind Press
QNH
hPa
Press
MSL
hPa
Rain since
9am
mm
Dir  Spd
km/h
Gust
km/h
Spd
kts
Gust
kts
06/11:30pm 23.3 23.7 19.9 81 2.2 N 17 26 9 14 1012.1 - 0.0
06/11:00pm 23.6 24.8 19.9 80 2.4 NNW 13 19 7 10 1012.3 - 0.0
06/10:30pm 24.0 24.2 20.1 79 2.5 NNW 19 30 10 16 1012.3 - 0.0
06/10:00pm 24.3 24.5 20.2 78 2.7 NNW 19 28 10 15 1012.3 - 0.0
06/09:30pm 24.5 23.8 20.2 77 2.8 N 24 33 13 18 1011.9 - 0.0
06/09:00pm 24.8 23.2 20.1 75 3.0 N 28 35 15 19 1011.8 1011.8 0.0
06/08:30pm 24.8 24.0 20.1 75 3.0 N 24 43 13 23 1012.3 - 0.0
06/08:00pm 24.0 24.6 20.3 80 2.4 N 17 24 9 13 1012.0 - 0.0
06/07:30pm 24.3 23.4 20.6 80 2.4 N 26 35 14 19 1011.7 - 0.0
06/07:00pm 24.6 23.0 20.7 79 2.6 N 30 41 16 22 1010.7 - 0.0
06/06:30pm 24.5 22.3 20.8 80 2.4 N 33 43 18 23 1010.5 - 0.0
06/06:00pm 24.6 22.5 20.9 80 2.4 N 33 46 18 25 1010.1 1010.1 0.0
06/05:30pm 24.7 22.2 20.8 79 2.6 N 35 46 19 25 1009.7 - 0.0
06/05:00pm 25.3 22.8 20.8 76 3.0 N 35 54 19 29 1009.4 - 0.0
06/04:56pm 25.6 23.1 20.8 75 3.2 N 35 54 19 29 1009.4 - 0.0
06/04:30pm 25.7 23.5 20.7 74 3.3 N 33 44 18 24 1009.0 - 0.0
06/04:00pm 26.2 23.5 20.5 71 3.7 N 35 46 19 25 1009.0 - 0.0
06/03:30pm 27.4 25.4 20.7 67 4.4 NNE 32 43 17 23 1009.3 - 0.0
06/03:00pm 27.8 26.5 19.8 61 5.2 N 26 35 14 19 1009.8 1009.8 0.0
06/02:30pm 27.8 25.3 19.8 61 5.2 N 32 41 17 22 1010.3 - 0.0
06/02:00pm 26.7 24.0 19.6 65 4.6 NNE 33 41 18 22 1011.1 - 0.0
06/01:30pm 28.3 26.2 19.8 60 5.5 N 30 37 16 20 1011.7 - 0.0
06/01:00pm 26.9 24.3 20.0 66 4.5 NNE 33 44 18 24 1012.5 - 0.0
06/12:30pm 27.2 24.3 20.0 64 4.7 NNE 35 48 19 26 1013.1 - 0.0
06/12:00pm 27.3 25.5 20.4 66 4.5 NNE 30 41 16 22 1013.9 1013.9 0.0
06/11:30am 27.9 25.9 20.7 65 4.8 NNE 32 43 17 23 1014.7 - 0.0
06/11:00am 28.1 26.4 20.6 63 4.9 N 30 43 16 23 1015.4 - 0.0
06/10:30am 27.3 25.1 20.4 66 4.5 NNE 32 39 17 21 1016.1 - 0.0
06/10:00am 27.6 26.3 21.4 69 4.1 NNE 30 39 16 21 1016.8 - 0.0
06/09:30am 26.5 25.7 21.7 75 3.2 N 28 37 15 20 1017.1 - 0.0
06/09:00am 25.8 26.3 21.9 79 2.6 NNE 22 26 12 14 1017.5 1017.5 2.4
06/08:30am 26.1 27.7 22.8 82 2.2 NE 19 24 10 13 1017.7 - 2.4
06/08:00am 25.1 27.1 23.0 88 1.4 NE 17 24 9 13 1018.1 - 2.4
06/07:30am 23.5 24.4 21.9 91 1.1 NE 20 26 11 14 1018.1 - 2.4
06/07:00am 23.1 24.9 21.9 93 0.8 NE 15 20 8 11 1018.2 - 2.4
06/06:30am 22.7 24.3 21.5 93 0.8 ENE 15 17 8 9 1018.4 - 2.4
06/06:00am 22.7 23.9 21.5 93 0.8 E 17 20 9 11 1017.6 1017.6 2.4
06/05:49am 22.7 25.1 21.5 93 0.8 E 11 17 6 9 1017.5 - 2.4
06/05:30am 22.7 24.8 21.0 90 1.1 ESE 11 19 6 10 1017.2 - 1.2
06/05:00am 22.7 25.5 20.8 89 1.2 SE 7 9 4 5 1016.0 - 0.0
06/04:30am 22.7 26.7 20.6 88 1.4 CALM 0 0 0 0 1015.5 - 0.0
06/04:00am 22.6 25.2 20.1 86 1.6 N 6 9 3 5 1014.5 - 0.0
06/03:30am 22.8 24.2 20.3 86 1.6 N 13 20 7 11 1013.6 - 0.0
06/03:00am 22.4 23.5 20.5 89 1.2 N 15 20 8 11 1013.0 1013.0 0.0
06/02:30am 22.4 23.9 20.5 89 1.2 NNW 13 17 7 9 1013.0 - 0.0
06/02:00am 22.6 24.0 20.3 87 1.5 NNW 13 17 7 9 1013.0 - 0.0
06/01:30am 22.8 23.9 20.5 87 1.5 N 15 24 8 13 1012.9 - 0.0
06/01:00am 22.9 24.0 20.4 86 1.6 N 15 20 8 11 1013.2 - 0.0
06/12:30am 23.3 24.3 20.2 83 2.0 NNW 15 20 8 11 1013.6 - 0.0
06/12:00am 23.4 24.4 20.3 83 2.0 N 15 20 8 11 1013.8 1013.8 0.0
 
Date/Time
EST
Temp
°C
App
Temp
°C
Dew
Point
°C
Rel
Hum
%
Delta-T
°C
Wind Press
QNH
hPa
Press
MSL
hPa
Rain since
9am
mm
Dir  Spd
km/h
Gust
km/h
Spd
kts
Gust
kts
05/11:30pm 23.8 24.4 20.3 81 2.3 NNW 17 28 9 15 1013.7 - 0.0
05/11:00pm 24.1 23.5 20.4 80 2.4 N 24 35 13 19 1013.4 - 0.0
05/10:30pm 24.1 24.1 20.2 79 2.5 NNW 20 33 11 18 1013.4 - 0.0
05/10:00pm 24.2 23.9 20.3 79 2.5 N 22 33 12 18 1013.5 - 0.0
05/09:30pm 24.3 23.9 20.2 78 2.7 N 22 39 12 21 1013.3 - 0.0
05/09:00pm 24.3 24.5 20.6 80 2.4 N 20 30 11 16 1012.9 1012.9 0.0
05/08:30pm 24.3 24.1 20.6 80 2.4 N 22 32 12 17 1012.7 - 0.0
05/08:00pm 23.7 23.5 20.6 83 2.0 N 22 30 12 16 1012.4 - 0.0
05/07:30pm 23.8 23.3 20.7 83 2.0 N 24 33 13 18 1012.2 - 0.0
05/07:00pm 23.9 22.2 20.6 82 2.2 N 30 41 16 22 1011.9 - 0.0
05/06:30pm 24.1 22.0 20.6 81 2.3 N 32 44 17 24 1011.7 - 0.0
05/06:12pm 24.2 22.0 20.7 81 2.3 N 33 52 18 28 1011.6 - 0.0
05/06:00pm 24.3 21.3 20.6 80 2.4 N 37 50 20 27 1011.5 1011.5 0.0
05/05:37pm 24.8 21.8 20.7 78 2.7 N 37 56 20 30 1011.4 - 0.0

Other Formats:

Comma delimited format used in spreadsheet applications
http://www.bom.gov.au/fwo/IDQ60801/IDQ60801.94569.axf

JavaScript Object Notation format (JSON) in row-major order
http://www.bom.gov.au/fwo/IDQ60801/IDQ60801.94569.json